Time;durP1;ratioP1;P1;durP2;ratioP2;P2;SDS_P1;SDS_P2;PMS_P1;PMS_P2;Temp;Humidity;BMP_temperature;BMP_pressure;BME280_temperature;BME280_humidity;BME280_pressure;Samples;Min_cycle;Max_cycle;Signal;HPM_P1;HPM_P2
2023/01/07 00:01:20;;;;;;;21.00;9.23;;;;;;;8.14;86.80;101077.47;5016938;28;20037;-68
2023/01/07 00:03:47;;;;;;;18.85;9.45;;;;;;;8.08;87.23;101083.22;5012823;28;20048;-69
2023/01/07 00:06:18;;;;;;;22.33;9.57;;;;;;;7.92;87.70;101062.00;5015658;28;20124;-69
2023/01/07 00:08:47;;;;;;;19.95;9.07;;;;;;;7.96;87.75;101079.53;5014110;28;20475;-69
2023/01/07 00:11:16;;;;;;;17.17;8.35;;;;;;;7.89;87.96;101088.03;5020563;28;20030;-70
2023/01/07 00:13:42;;;;;;;18.42;8.65;;;;;;;7.83;88.58;101094.63;4998010;28;20037;-70
2023/01/07 00:16:13;;;;;;;17.55;10.10;;;;;;;7.78;88.66;101106.56;5007164;28;20040;-69
2023/01/07 00:18:39;;;;;;;19.08;10.23;;;;;;;7.76;89.23;101101.34;5014318;28;20029;-69
2023/01/07 00:21:07;;;;;;;19.25;10.48;;;;;;;7.67;89.11;101101.06;4998308;28;20128;-69
2023/01/07 00:23:35;;;;;;;23.35;10.70;;;;;;;7.60;89.07;101081.03;5011254;28;20033;-69
2023/01/07 00:26:12;;;;;;;16.67;9.40;;;;;;;7.69;89.47;101112.50;5015272;28;20030;-69
2023/01/07 00:28:39;;;;;;;15.68;9.73;;;;;;;7.60;90.39;101111.28;5015343;28;20053;-69
2023/01/07 00:31:10;;;;;;;20.40;10.50;;;;;;;7.58;90.39;101109.66;5014946;28;20033;-69
2023/01/07 00:33:42;;;;;;;19.55;10.18;;;;;;;7.52;90.46;101105.56;5002434;28;20033;-68
2023/01/07 00:36:09;;;;;;;20.27;10.23;;;;;;;7.49;91.32;101107.56;5024761;28;20029;-70
2023/01/07 00:38:35;;;;;;;20.15;10.10;;;;;;;7.45;91.49;101112.22;5013967;28;20376;-69
2023/01/07 00:41:02;;;;;;;16.83;9.07;;;;;;;7.41;91.81;101097.34;5012298;28;20034;-70
2023/01/07 00:43:28;;;;;;;18.25;9.05;;;;;;;7.43;91.79;101107.94;5012077;28;20049;-69
2023/01/07 00:45:53;;;;;;;22.90;10.80;;;;;;;7.43;91.83;101115.94;5013219;28;20079;-68
2023/01/07 00:48:20;;;;;;;15.00;9.45;;;;;;;7.36;92.11;101109.28;5014656;28;20029;-68
2023/01/07 00:50:47;;;;;;;16.20;8.95;;;;;;;7.37;92.51;101114.53;5020273;28;20446;-68
2023/01/07 00:53:12;;;;;;;15.45;8.95;;;;;;;7.37;92.69;101100.31;5009058;28;20084;-69
2023/01/07 00:55:38;;;;;;;16.73;8.80;;;;;;;7.35;93.11;101102.22;5020970;28;20045;-69
2023/01/07 00:58:04;;;;;;;23.40;9.20;;;;;;;7.39;92.41;101103.75;5011283;28;20061;-69
2023/01/07 01:00:29;;;;;;;16.95;9.82;;;;;;;7.24;92.53;101081.53;5011657;28;20026;-68
2023/01/07 01:02:55;;;;;;;17.83;10.25;;;;;;;7.36;93.19;101110.16;4999276;28;20076;-69
2023/01/07 01:05:21;;;;;;;18.90;10.25;;;;;;;7.35;92.55;101108.41;5007486;28;20030;-69
2023/01/07 01:07:47;;;;;;;21.50;9.88;;;;;;;7.28;92.89;101104.41;5014899;28;20035;-68
2023/01/07 01:10:15;;;;;;;20.73;9.98;;;;;;;7.38;92.25;101116.22;5023678;28;20511;-69
2023/01/07 01:12:41;;;;;;;21.13;10.60;;;;;;;7.36;92.47;101115.47;5010705;28;20025;-68
2023/01/07 01:15:12;;;;;;;16.95;9.60;;;;;;;7.28;92.70;101103.56;5006563;28;20435;-69
2023/01/07 01:17:38;;;;;;;14.15;8.95;;;;;;;7.21;93.03;101107.53;5009052;28;20084;-69
2023/01/07 01:20:06;;;;;;;18.67;9.93;;;;;;;7.03;93.22;101080.19;5020311;28;20037;-69
2023/01/07 01:22:31;;;;;;;17.15;9.85;;;;;;;6.63;93.30;101030.25;5004163;28;20037;-69
2023/01/07 01:24:57;;;;;;;16.25;9.80;;;;;;;7.03;93.54;101106.00;5007312;28;20099;-69
2023/01/07 01:27:23;;;;;;;16.10;9.65;;;;;;;6.87;93.14;101082.94;5003297;28;20433;-69
2023/01/07 01:29:48;;;;;;;15.45;9.50;;;;;;;6.90;93.47;101100.53;4986099;28;20042;-69
2023/01/07 01:32:13;;;;;;;17.55;9.73;;;;;;;6.87;94.14;101108.75;4994466;28;20038;-69
2023/01/07 01:34:39;;;;;;;21.17;9.90;;;;;;;6.81;93.51;101111.78;5021309;28;20032;-69
2023/01/07 01:37:05;;;;;;;21.20;10.00;;;;;;;6.75;94.27;101109.47;5019423;28;20056;-70
2023/01/07 01:39:30;;;;;;;17.10;9.60;;;;;;;6.63;94.01;101097.75;5021060;28;20365;-70
2023/01/07 01:41:56;;;;;;;16.20;8.65;;;;;;;6.73;94.28;101119.38;4998863;28;20045;-70
2023/01/07 01:44:35;;;;;;;18.95;9.15;;;;;;;6.73;95.32;101116.69;5024601;28;20052;-70
2023/01/07 01:47:04;;;;;;;24.17;9.57;;;;;;;6.67;95.60;101112.59;5017007;28;20129;-69
2023/01/07 01:49:40;;;;;;;19.42;9.32;;;;;;;6.61;95.26;101112.97;5025061;28;20681;-70
2023/01/07 01:52:14;;;;;;;22.05;10.30;;;;;;;6.72;95.46;101118.53;5009589;28;20033;-69
2023/01/07 01:54:44;;;;;;;19.98;10.10;;;;;;;6.62;95.38;101120.00;5024090;28;20025;-70
2023/01/07 01:57:10;;;;;;;19.38;9.88;;;;;;;6.60;95.40;101105.06;5015452;28;20030;-69
2023/01/07 01:59:39;;;;;;;17.38;10.15;;;;;;;6.46;96.25;101087.22;5025157;28;20055;-70
2023/01/07 02:02:06;;;;;;;20.45;9.38;;;;;;;6.50;95.98;101101.22;5016473;28;20044;-69
2023/01/07 02:04:32;;;;;;;19.45;10.40;;;;;;;6.46;96.36;101086.34;5012007;28;20040;-69
2023/01/07 02:07:15;;;;;;;15.63;9.32;;;;;;;6.50;96.71;101098.53;5027018;28;20480;-69
2023/01/07 02:09:41;;;;;;;18.05;10.50;;;;;;;6.48;96.46;101095.13;5022778;28;20116;-69
2023/01/07 02:12:19;;;;;;;20.52;9.85;;;;;;;6.48;97.03;101089.81;5017518;28;20191;-70
2023/01/07 02:15:03;;;;;;;21.02;10.80;;;;;;;6.46;97.18;101087.22;5012573;28;20033;-70
2023/01/07 02:17:45;;;;;;;19.38;10.93;;;;;;;6.46;96.97;101084.56;5009026;28;20037;-69
2023/01/07 02:20:28;;;;;;;24.58;11.57;;;;;;;6.52;97.11;101076.19;5013518;28;20026;-69
2023/01/07 02:23:05;;;;;;;21.77;11.32;;;;;;;6.50;97.03;101078.09;5025318;28;20719;-70
2023/01/07 02:25:31;;;;;;;21.13;11.65;;;;;;;6.46;96.96;101076.56;5017767;28;20045;-69
2023/01/07 02:28:07;;;;;;;17.35;9.65;;;;;;;6.47;96.77;101069.41;5009113;28;20033;-69
2023/01/07 02:30:54;;;;;;;21.05;10.45;;;;;;;6.46;96.79;101063.25;5024896;28;20026;-69
2023/01/07 02:33:40;;;;;;;25.45;11.65;;;;;;;6.45;97.04;101066.84;5024047;28;20033;-69
2023/01/07 02:36:15;;;;;;;22.83;10.90;;;;;;;6.45;97.03;101069.50;5008432;28;20098;-70
2023/01/07 02:39:14;;;;;;;22.75;12.32;;;;;;;6.38;97.18;101054.84;5013022;28;20060;-70
2023/01/07 02:41:58;;;;;;;25.55;11.48;;;;;;;6.42;96.50;101060.84;5021372;28;20029;-70
2023/01/07 02:44:47;;;;;;;21.10;11.00;;;;;;;6.40;96.43;101060.94;5015507;28;20372;-71
2023/01/07 02:47:34;;;;;;;22.58;11.48;;;;;;;6.37;96.73;101069.13;5018546;28;20063;-71
2023/01/07 02:49:59;;;;;;;20.88;10.50;;;;;;;6.34;97.35;101061.28;5004240;28;20430;-69
2023/01/07 02:52:31;;;;;;;19.35;10.95;;;;;;;6.33;97.05;101062.25;5021798;28;20033;-70
2023/01/07 02:55:09;;;;;;;22.23;11.27;;;;;;;6.30;97.34;101056.25;5017994;28;20091;-71
2023/01/07 02:58:07;;;;;;;21.25;12.05;;;;;;;6.30;96.94;101057.09;5014046;28;20025;-70
2023/01/07 03:00:54;;;;;;;19.77;11.40;;;;;;;6.33;97.66;101056.94;4997724;28;20052;-70
2023/01/07 03:03:43;;;;;;;22.75;11.80;;;;;;;6.26;97.64;101050.22;5010723;28;20160;-69
2023/01/07 03:06:45;;;;;;;24.98;12.40;;;;;;;6.06;98.00;101009.75;4998640;28;20030;-69
2023/01/07 03:09:22;;;;;;;25.55;12.73;;;;;;;6.28;97.45;101052.78;5023867;28;20440;-69
2023/01/07 03:12:04;;;;;;;25.70;11.55;;;;;;;6.25;97.57;101037.00;5013003;28;20112;-69
2023/01/07 03:14:40;;;;;;;22.00;11.57;;;;;;;6.26;97.58;101054.72;5001247;28;20049;-70
2023/01/07 03:17:10;;;;;;;24.85;11.50;;;;;;;6.13;97.96;101027.06;5016416;28;20031;-69
2023/01/07 03:19:40;;;;;;;20.23;12.10;;;;;;;6.05;98.33;101030.19;5013527;28;20044;-69
2023/01/07 03:22:07;;;;;;;21.45;11.50;;;;;;;6.15;98.39;101038.47;5015433;28;20395;-71
2023/01/07 03:24:33;;;;;;;25.40;12.38;;;;;;;6.01;98.36;101028.66;5021669;28;20439;-71
2023/01/07 03:27:03;;;;;;;23.48;12.07;;;;;;;6.05;98.20;101031.97;5016571;28;20036;-69
2023/01/07 03:29:31;;;;;;;21.75;11.43;;;;;;;6.03;98.33;101032.06;5019620;28;20036;-69
2023/01/07 03:32:14;;;;;;;20.15;12.13;;;;;;;6.11;98.16;101039.59;5012562;28;20079;-69
2023/01/07 03:34:41;;;;;;;22.05;11.35;;;;;;;6.09;98.36;101047.69;5016055;28;20025;-70
2023/01/07 03:37:15;;;;;;;23.67;11.48;;;;;;;6.07;98.30;101038.06;5014936;28;20126;-70
2023/01/07 03:39:42;;;;;;;24.52;12.30;;;;;;;6.05;98.47;101034.63;5012109;28;20037;-70
2023/01/07 03:44:54;;;;;;;26.88;14.98;;;;;;;5.96;98.17;101028.03;5016448;28;21005;-71
2023/01/07 03:47:20;;;;;;;22.75;13.02;;;;;;;5.93;98.61;101025.56;4998556;28;20025;-71
2023/01/07 03:49:45;;;;;;;20.15;12.40;;;;;;;5.89;98.46;101026.69;5018107;28;20827;-70
2023/01/07 03:52:11;;;;;;;23.33;12.02;;;;;;;5.88;98.45;101029.44;5014939;28;20457;-70
2023/01/07 03:54:36;;;;;;;23.15;12.50;;;;;;;5.87;99.00;101038.38;4989690;28;20041;-70
2023/01/07 03:57:02;;;;;;;25.45;12.65;;;;;;;5.83;98.68;101043.00;4999224;28;20037;-69
2023/01/07 03:59:27;;;;;;;23.60;12.68;;;;;;;5.75;98.03;101029.25;5016279;28;20029;-68
2023/01/07 04:01:53;;;;;;;28.02;12.15;;;;;;;5.72;98.17;101036.53;5013389;28;20032;-69
2023/01/07 04:04:18;;;;;;;23.05;12.25;;;;;;;5.66;99.08;101028.88;5022032;28;20017;-69
2023/01/07 04:06:43;;;;;;;25.63;12.10;;;;;;;5.63;98.72;101029.94;5014765;28;20033;-69
2023/01/07 04:09:10;;;;;;;23.50;12.45;;;;;;;5.61;99.36;101037.13;5013413;28;20033;-69
2023/01/07 04:11:36;;;;;;;25.50;11.85;;;;;;;5.57;99.06;101034.72;5010386;28;20029;-69
2023/01/07 04:14:01;;;;;;;28.90;12.60;;;;;;;5.49;98.76;101029.84;5016273;28;20147;-69
2023/01/07 04:16:27;;;;;;;21.20;12.35;;;;;;;5.37;98.97;101011.91;5016348;28;20112;-70
2023/01/07 04:18:52;;;;;;;23.13;12.15;;;;;;;5.44;99.34;101031.91;5022303;28;20030;-70
2023/01/07 04:21:17;;;;;;;23.15;12.35;;;;;;;5.36;99.75;101027.94;5022300;28;20494;-70
2023/01/07 04:23:43;;;;;;;26.80;13.95;;;;;;;5.37;99.68;101038.50;5021423;28;20679;-70
2023/01/07 04:26:08;;;;;;;25.40;12.02;;;;;;;5.34;99.51;101032.47;5021074;28;20032;-69
2023/01/07 04:28:34;;;;;;;21.92;11.13;;;;;;;5.27;99.84;101031.09;5017868;28;20116;-70
2023/01/07 04:30:59;;;;;;;25.33;12.13;;;;;;;5.22;99.70;101027.84;5008953;28;20033;-70
2023/01/07 04:33:25;;;;;;;22.02;11.90;;;;;;;5.17;99.39;101029.91;5015866;28;20036;-70
2023/01/07 04:35:51;;;;;;;21.90;11.95;;;;;;;5.06;99.37;101014.50;4992714;28;20282;-70
2023/01/07 04:38:16;;;;;;;20.25;11.45;;;;;;;4.95;99.09;101014.25;5015333;28;20017;-70
2023/01/07 04:40:41;;;;;;;20.80;12.30;;;;;;;4.95;99.01;101016.91;5010183;28;20036;-70
2023/01/07 04:43:08;;;;;;;20.05;11.52;;;;;;;4.92;98.81;101025.03;5009713;28;20034;-70
2023/01/07 04:45:33;;;;;;;23.00;12.15;;;;;;;4.75;98.97;101004.66;4993273;28;20029;-71
2023/01/07 04:47:58;;;;;;;24.55;12.00;;;;;;;4.71;99.39;101015.56;5017443;28;20490;-71
2023/01/07 04:50:24;;;;;;;23.33;11.65;;;;;;;4.69;99.65;101013.00;4996421;28;20763;-70
2023/01/07 04:52:50;;;;;;;22.95;12.43;;;;;;;4.76;99.89;101032.09;5013392;28;20383;-70
2023/01/07 04:55:15;;;;;;;23.23;12.18;;;;;;;4.65;100.00;101021.19;5012013;28;20080;-70
2023/01/07 04:57:40;;;;;;;20.52;11.85;;;;;;;4.49;100.00;101001.69;5016543;28;20025;-70
2023/01/07 05:00:07;;;;;;;23.50;12.68;;;;;;;4.62;100.00;101026.66;5019766;28;20040;-70
2023/01/07 05:02:33;;;;;;;25.35;11.93;;;;;;;4.58;100.00;101036.59;5015753;28;20094;-71
2023/01/07 05:04:59;;;;;;;22.83;12.50;;;;;;;4.57;99.97;101041.97;5015932;28;20061;-69
2023/01/07 05:07:24;;;;;;;26.73;12.65;;;;;;;4.50;99.95;101032.59;5017853;28;20032;-69
2023/01/07 05:09:49;;;;;;;29.30;14.00;;;;;;;4.46;100.00;101039.03;5010055;28;20565;-70
2023/01/07 05:12:15;;;;;;;24.42;13.50;;;;;;;4.34;100.00;101029.03;5009892;28;20073;-69
2023/01/07 05:14:40;;;;;;;27.38;12.25;;;;;;;4.42;100.00;101045.44;5022267;28;20376;-69
2023/01/07 05:17:06;;;;;;;24.15;12.65;;;;;;;4.40;100.00;101049.97;5003765;28;20037;-70
2023/01/07 05:19:31;;;;;;;24.23;13.57;;;;;;;4.32;100.00;101044.19;5021935;28;20034;-70
2023/01/07 05:21:56;;;;;;;24.85;13.70;;;;;;;4.31;100.00;101047.75;5006491;28;20514;-70
2023/01/07 05:24:22;;;;;;;25.63;13.52;;;;;;;4.28;100.00;101046.13;5023517;28;20057;-70
2023/01/07 05:26:47;;;;;;;23.17;13.00;;;;;;;4.19;100.00;101038.63;5005042;28;20743;-68
2023/01/07 05:29:13;;;;;;;27.17;14.93;;;;;;;4.18;100.00;101039.56;5019830;28;20049;-68
2023/01/07 05:31:39;;;;;;;23.25;12.20;;;;;;;4.16;100.00;101051.22;5018899;28;20057;-68
2023/01/07 05:34:05;;;;;;;28.15;14.10;;;;;;;4.10;100.00;101046.19;5017680;28;20048;-70
2023/01/07 05:36:31;;;;;;;23.35;13.45;;;;;;;4.04;100.00;101049.16;5019125;28;20037;-70
2023/01/07 05:38:56;;;;;;;26.70;13.43;;;;;;;4.01;100.00;101042.22;5014285;28;20574;-69
2023/01/07 05:41:22;;;;;;;21.83;13.35;;;;;;;3.86;100.00;101031.47;5017840;28;20555;-69
2023/01/07 05:43:48;;;;;;;25.40;12.63;;;;;;;3.94;100.00;101062.00;5015050;28;20094;-69
2023/01/07 05:46:13;;;;;;;28.55;13.15;;;;;;;3.90;100.00;101054.28;5012677;28;20030;-68
2023/01/07 05:48:39;;;;;;;20.90;12.20;;;;;;;3.86;100.00;101058.00;5008361;28;20034;-68
2023/01/07 05:51:05;;;;;;;27.88;13.65;;;;;;;3.80;100.00;101056.50;5003284;28;20029;-69
2023/01/07 05:53:30;;;;;;;27.33;13.63;;;;;;;3.79;100.00;101053.94;5021995;28;20108;-68
2023/01/07 05:55:57;;;;;;;29.58;13.02;;;;;;;3.76;100.00;101051.41;5019573;28;20823;-68
2023/01/07 05:58:22;;;;;;;26.83;12.57;;;;;;;3.80;100.00;101053.84;5015829;28;20032;-69
2023/01/07 06:00:48;;;;;;;27.45;14.45;;;;;;;3.78;100.00;101061.03;5014305;28;20033;-69
2023/01/07 06:03:13;;;;;;;26.25;13.02;;;;;;;3.70;100.00;101041.97;5023844;28;20434;-70
2023/01/07 06:05:39;;;;;;;26.55;13.60;;;;;;;3.71;100.00;101048.16;5012273;28;20472;-70
2023/01/07 06:08:04;;;;;;;25.67;13.23;;;;;;;3.54;100.00;101024.22;4989773;28;20036;-69
2023/01/07 06:10:30;;;;;;;24.00;12.13;;;;;;;3.67;100.00;101049.22;5014366;28;20029;-70
2023/01/07 06:12:55;;;;;;;25.00;13.98;;;;;;;3.64;100.00;101046.72;5021572;28;20540;-70
2023/01/07 06:15:21;;;;;;;28.48;14.55;;;;;;;3.52;100.00;101023.44;5012214;28;20030;-69
2023/01/07 06:17:46;;;;;;;28.80;14.15;;;;;;;3.52;100.00;101026.94;5021128;28;20033;-69
2023/01/07 06:20:13;;;;;;;24.90;14.52;;;;;;;3.59;100.00;101035.47;5019371;28;20022;-70
2023/01/07 06:22:41;;;;;;;31.10;15.82;;;;;;;3.60;100.00;101047.78;4996760;28;20473;-69
2023/01/07 06:25:06;;;;;;;24.92;15.27;;;;;;;3.61;100.00;101047.72;4997469;28;20038;-69
2023/01/07 06:27:32;;;;;;;30.10;14.68;;;;;;;3.65;100.00;101049.28;5022943;28;20040;-69
2023/01/07 06:29:57;;;;;;;30.05;15.98;;;;;;;3.62;100.00;101056.53;5014749;28;20052;-69
2023/01/07 06:32:23;;;;;;;26.55;14.20;;;;;;;3.63;100.00;101059.13;5012309;28;20061;-69
2023/01/07 06:34:48;;;;;;;28.17;15.00;;;;;;;3.56;100.00;101051.53;5014824;28;20056;-69
2023/01/07 06:37:14;;;;;;;24.60;14.85;;;;;;;3.63;100.00;101059.13;5011415;28;20022;-69
2023/01/07 06:39:39;;;;;;;30.88;16.20;;;;;;;3.61;100.00;101049.53;5021493;28;20033;-70
2023/01/07 06:42:05;;;;;;;26.35;14.25;;;;;;;3.51;100.00;101035.00;5006905;28;20030;-69
2023/01/07 06:44:30;;;;;;;27.60;14.93;;;;;;;3.60;100.00;101061.03;5011970;28;20468;-69
2023/01/07 06:46:56;;;;;;;26.38;14.00;;;;;;;3.52;100.00;101056.09;5016659;28;21002;-68
2023/01/07 06:49:21;;;;;;;26.92;14.02;;;;;;;3.42;100.00;101032.78;5020984;28;20033;-68
2023/01/07 06:51:47;;;;;;;28.33;15.45;;;;;;;3.48;100.00;101051.88;5017964;28;20030;-68
2023/01/07 06:54:12;;;;;;;27.70;13.27;;;;;;;3.49;100.00;101052.75;5022336;28;20112;-68
2023/01/07 06:56:38;;;;;;;27.38;14.75;;;;;;;3.59;100.00;101072.59;5013103;28;20458;-68
2023/01/07 06:59:03;;;;;;;25.23;14.98;;;;;;;3.58;100.00;101069.06;5013726;28;20464;-68
2023/01/07 07:01:29;;;;;;;30.50;15.13;;;;;;;3.58;100.00;101069.06;5018653;28;20044;-69
2023/01/07 07:03:54;;;;;;;29.73;14.90;;;;;;;3.61;100.00;101068.09;5021068;28;20037;-69
2023/01/07 07:06:20;;;;;;;29.50;15.13;;;;;;;3.65;100.00;101074.97;5025967;28;20033;-69
2023/01/07 07:08:45;;;;;;;31.23;16.52;;;;;;;3.66;100.00;101060.75;5010114;28;20029;-69
2023/01/07 07:11:11;;;;;;;27.20;15.57;;;;;;;3.70;100.00;101065.84;5013217;28;20780;-69
2023/01/07 07:13:36;;;;;;;28.98;16.55;;;;;;;3.75;100.00;101065.63;4998455;28;20467;-69
2023/01/07 07:16:02;;;;;;;30.88;16.35;;;;;;;3.75;100.00;101055.88;5013332;28;20085;-69
2023/01/07 07:18:27;;;;;;;28.88;16.23;;;;;;;3.84;100.00;101070.50;4996582;28;20064;-69
2023/01/07 07:20:53;;;;;;;33.42;16.90;;;;;;;4.03;100.00;101066.03;5023975;28;20024;-69
2023/01/07 07:23:18;;;;;;;29.67;16.45;;;;;;;4.09;100.00;101068.34;5014366;28;20037;-70
2023/01/07 07:25:43;;;;;;;29.67;15.65;;;;;;;4.04;100.00;101052.69;5000519;28;20039;-69
2023/01/07 07:28:09;;;;;;;29.80;16.42;;;;;;;4.18;100.00;101071.41;5015894;28;20033;-68
2023/01/07 07:30:36;;;;;;;28.00;16.13;;;;;;;4.19;100.00;101064.28;5021660;28;20095;-69
2023/01/07 07:33:03;;;;;;;32.47;16.77;;;;;;;4.23;100.00;101065.88;5014897;28;20041;-68
2023/01/07 07:35:29;;;;;;;32.80;17.58;;;;;;;4.27;100.00;101062.13;5020041;28;20034;-70
2023/01/07 07:37:54;;;;;;;33.65;17.42;;;;;;;4.32;100.00;101070.75;5015039;28;20554;-69
2023/01/07 07:40:20;;;;;;;34.85;17.95;;;;;;;4.45;100.00;101058.56;5007340;28;20120;-69
2023/01/07 07:42:45;;;;;;;33.75;18.48;;;;;;;4.51;100.00;101051.13;5016335;28;20396;-69
2023/01/07 07:45:11;;;;;;;35.00;18.42;;;;;;;4.52;100.00;101046.69;5023694;28;20033;-70
2023/01/07 07:47:36;;;;;;;33.08;18.40;;;;;;;4.61;100.00;101060.34;5013302;28;20029;-70
2023/01/07 07:50:02;;;;;;;34.90;19.23;;;;;;;4.63;100.00;101063.78;5010149;28;20037;-69
2023/01/07 07:52:28;;;;;;;35.95;18.55;;;;;;;4.74;100.00;101064.06;5019816;28;20029;-69
2023/01/07 07:54:53;;;;;;;35.25;19.60;;;;;;;4.83;100.00;101060.06;5004796;28;20053;-68
2023/01/07 07:57:19;;;;;;;33.30;20.02;;;;;;;5.00;100.00;101056.53;4992543;28;20073;-69
2023/01/07 07:59:44;;;;;;;36.53;20.08;;;;;;;5.08;100.00;101063.16;5005055;28;20033;-69
2023/01/07 08:02:12;;;;;;;32.22;19.83;;;;;;;5.01;100.00;101043.16;4990214;28;20033;-69
2023/01/07 08:04:37;;;;;;;35.65;18.55;;;;;;;5.34;100.00;101061.72;5005746;28;20818;-69
2023/01/07 08:07:03;;;;;;;32.63;19.85;;;;;;;5.29;100.00;101059.31;5011854;28;20029;-70
2023/01/07 08:09:28;;;;;;;34.92;20.00;;;;;;;5.42;100.00;101062.19;4997966;28;20087;-70
2023/01/07 08:11:54;;;;;;;34.70;20.17;;;;;;;5.57;100.00;101062.19;5005227;28;20792;-70
2023/01/07 08:14:20;;;;;;;44.15;23.75;;;;;;;5.72;100.00;101064.03;5015956;28;20128;-70
2023/01/07 08:16:45;;;;;;;37.42;21.42;;;;;;;5.64;100.00;101055.59;5015562;28;20059;-70
2023/01/07 08:19:11;;;;;;;40.22;21.10;;;;;;;5.73;100.00;101052.41;4996165;28;20061;-70
2023/01/07 08:21:36;;;;;;;40.40;22.25;;;;;;;5.87;100.00;101052.50;5018236;28;20036;-70
2023/01/07 08:24:02;;;;;;;34.03;20.65;;;;;;;5.97;100.00;101058.19;5012878;28;20091;-70
2023/01/07 08:26:27;;;;;;;36.17;21.33;;;;;;;5.86;100.00;101029.50;5011865;28;20021;-70
2023/01/07 08:28:53;;;;;;;33.10;19.63;;;;;;;6.03;100.00;101049.84;5012718;28;20511;-70
2023/01/07 08:31:18;;;;;;;33.17;21.33;;;;;;;6.04;100.00;101040.91;5012832;28;20094;-70
2023/01/07 08:33:44;;;;;;;37.55;20.90;;;;;;;6.20;100.00;101050.59;5014902;28;20026;-70
2023/01/07 08:36:09;;;;;;;36.42;22.38;;;;;;;6.25;100.00;101053.84;5015854;28;20394;-70
2023/01/07 08:38:35;;;;;;;41.40;21.20;;;;;;;6.37;100.00;101041.59;5004793;28;20041;-69
2023/01/07 08:41:00;;;;;;;39.10;20.35;;;;;;;6.53;100.00;101050.41;5019079;28;20025;-70
2023/01/07 08:43:26;;;;;;;41.40;19.77;;;;;;;6.66;100.00;101043.38;5007887;28;20033;-69
2023/01/07 08:45:52;;;;;;;37.55;20.50;;;;;;;6.78;100.00;101053.31;5017852;28;20037;-69
2023/01/07 08:48:18;;;;;;;36.40;19.67;;;;;;;6.82;100.00;101050.38;5022377;28;20029;-70
2023/01/07 08:50:49;;;;;;;39.15;20.08;;;;;;;7.01;100.00;101047.44;5021534;28;20462;-69
2023/01/07 08:53:14;;;;;;;40.85;21.17;;;;;;;7.05;100.00;101048.97;5013792;28;20029;-69
2023/01/07 08:55:39;;;;;;;36.05;20.73;;;;;;;7.10;100.00;101046.88;5023854;28;20045;-69
2023/01/07 08:58:05;;;;;;;35.17;19.63;;;;;;;7.10;100.00;101048.69;5010658;28;20086;-69
2023/01/07 09:00:30;;;;;;;35.70;19.33;;;;;;;7.16;100.00;101057.13;5025808;28;20043;-70
2023/01/07 09:02:56;;;;;;;37.88;18.95;;;;;;;7.26;100.00;101046.78;5020267;28;20060;-70
2023/01/07 09:05:23;;;;;;;30.00;18.10;;;;;;;7.34;100.00;101055.13;5024934;28;20028;-71
2023/01/07 09:07:52;;;;;;;29.33;17.17;;;;;;;7.30;100.00;101038.47;5005330;28;20123;-71
2023/01/07 09:10:17;;;;;;;27.00;16.63;;;;;;;7.27;100.00;101028.00;5016623;28;20033;-71
2023/01/07 09:12:42;;;;;;;29.05;18.08;;;;;;;7.47;100.00;101054.28;5015620;28;20582;-68
2023/01/07 09:15:08;;;;;;;32.15;18.33;;;;;;;7.55;100.00;101064.47;5019415;28;20068;-69
2023/01/07 09:17:34;;;;;;;30.48;17.20;;;;;;;7.56;100.00;101048.34;5013356;28;20030;-69
2023/01/07 09:20:02;;;;;;;29.88;18.40;;;;;;;7.66;100.00;101053.97;5001659;28;20029;-69
2023/01/07 09:22:29;;;;;;;31.98;18.92;;;;;;;7.72;100.00;101057.09;5018790;28;20041;-69
2023/01/07 09:24:54;;;;;;;29.08;18.05;;;;;;;7.68;100.00;101036.03;5008776;28;20052;-69
2023/01/07 09:27:21;;;;;;;27.10;17.15;;;;;;;7.80;100.00;101045.94;5019679;28;20025;-68
2023/01/07 09:29:46;;;;;;;28.50;17.48;;;;;;;7.97;100.00;101054.53;5017866;28;20029;-68
2023/01/07 09:32:12;;;;;;;30.20;18.15;;;;;;;8.04;100.00;101044.31;5026788;28;20033;-69
2023/01/07 09:34:37;;;;;;;31.88;19.75;;;;;;;8.19;100.00;101054.00;5013832;28;20360;-69
2023/01/07 09:37:03;;;;;;;30.88;18.17;;;;;;;8.25;100.00;101051.78;5013181;28;20486;-69
2023/01/07 09:39:28;;;;;;;26.00;17.08;;;;;;;8.35;100.00;101044.03;5016799;28;20037;-69
2023/01/07 09:42:23;;;;;;;25.55;15.82;;;;;;;8.44;100.00;101040.72;5018138;28;20061;-69
2023/01/07 09:45:23;;;;;;;25.15;16.25;;;;;;;8.53;100.00;101034.75;5016183;28;20442;-70
2023/01/07 09:47:53;;;;;;;26.60;16.55;;;;;;;8.61;100.00;101025.25;5018441;28;20096;-70
2023/01/07 09:50:41;;;;;;;25.88;16.38;;;;;;;8.71;100.00;101025.50;5024147;28;20029;-70
2023/01/07 09:53:32;;;;;;;27.98;16.75;;;;;;;8.74;100.00;101010.06;5021649;28;20392;-69
2023/01/07 09:55:59;;;;;;;24.65;15.32;;;;;;;8.85;100.00;101009.34;5024610;28;20056;-69
2023/01/07 09:58:25;;;;;;;28.35;16.85;;;;;;;8.80;100.00;100985.59;5008122;28;20032;-70
2023/01/07 10:01:22;;;;;;;24.65;15.82;;;;;;;8.97;100.00;101008.50;5017143;28;20026;-70
2023/01/07 10:04:31;;;;;;;29.30;16.77;;;;;;;9.08;100.00;101008.56;5015091;28;20069;-70
2023/01/07 10:07:18;;;;;;;30.27;16.92;;;;;;;9.11;100.00;101009.22;4996891;28;20045;-70
2023/01/07 10:09:52;;;;;;;28.95;16.05;;;;;;;9.19;100.00;101003.31;5019200;28;20036;-70
2023/01/07 10:12:30;;;;;;;23.52;15.77;;;;;;;9.26;100.00;101002.75;5022002;28;20033;-70
2023/01/07 10:15:20;;;;;;;24.02;15.95;;;;;;;9.39;100.00;100997.41;5013458;28;20033;-70
2023/01/07 10:17:56;;;;;;;23.58;15.70;;;;;;;9.44;100.00;100989.88;5025429;28;20657;-70
2023/01/07 10:20:26;;;;;;;24.95;15.93;;;;;;;9.52;100.00;100994.69;5009395;28;20022;-70
2023/01/07 10:23:40;;;;;;;22.33;15.10;;;;;;;9.59;100.00;100985.22;5015317;28;20018;-70
2023/01/07 10:26:29;;;;;;;22.38;15.25;;;;;;;9.62;100.00;100983.19;4970271;28;20042;-70
2023/01/07 10:29:18;;;;;;;27.35;15.43;;;;;;;9.67;100.00;100972.16;5020305;28;20025;-69
2023/01/07 10:31:44;;;;;;;26.02;15.13;;;;;;;9.72;100.00;100968.16;5006852;28;20060;-69
2023/01/07 10:34:18;;;;;;;24.85;14.45;;;;;;;9.68;99.75;100949.75;5018262;28;20033;-70
2023/01/07 10:36:56;;;;;;;22.85;14.40;;;;;;;9.85;99.74;100978.81;5023679;28;20059;-69
2023/01/07 10:39:27;;;;;;;22.27;13.63;;;;;;;9.90;99.61;100966.78;5013082;28;20033;-69
2023/01/07 10:42:23;;;;;;;19.63;13.52;;;;;;;9.91;99.33;100956.91;5011568;28;20687;-70
2023/01/07 10:45:18;;;;;;;22.15;13.23;;;;;;;10.03;98.63;100961.38;5016289;28;20863;-70
2023/01/07 10:48:06;;;;;;;18.90;12.43;;;;;;;10.10;97.96;100955.47;5020782;28;20040;-68
2023/01/07 10:51:01;;;;;;;21.88;15.05;;;;;;;10.18;96.96;100961.09;4985618;28;20049;-69
2023/01/07 10:53:49;;;;;;;;;;;;;;;10.24;96.05;100954.41;5013475;28;20376;-69
2023/01/07 10:56:35;;;;;;;20.83;14.05;;;;;;;10.33;95.95;100954.56;5027498;28;19921;-69
2023/01/07 10:59:01;;;;;;;25.10;15.98;;;;;;;10.39;95.69;100953.22;5025771;28;20029;-69
2023/01/07 11:01:31;;;;;;;24.15;15.75;;;;;;;10.45;95.19;100942.88;5013064;28;20068;-70
2023/01/07 11:03:58;;;;;;;25.13;16.35;;;;;;;10.54;94.76;100947.53;5024840;28;20025;-69
2023/01/07 11:06:44;;;;;;;22.95;15.25;;;;;;;10.59;94.63;100939.13;5021689;28;20036;-69
2023/01/07 11:09:16;;;;;;;23.60;15.35;;;;;;;10.67;94.05;100940.22;5006236;28;20029;-70
2023/01/07 11:11:44;;;;;;;26.13;16.20;;;;;;;10.67;93.57;100921.44;5018954;28;20107;-69
2023/01/07 11:14:19;;;;;;;23.52;16.33;;;;;;;10.76;92.65;100925.22;5026396;28;20117;-68
2023/01/07 11:16:51;;;;;;;25.02;16.42;;;;;;;10.81;92.11;100923.91;5016758;28;20108;-68
2023/01/07 11:19:17;;;;;;;25.77;16.67;;;;;;;10.80;91.51;100910.63;5019048;28;20037;-69
2023/01/07 11:21:51;;;;;;;23.13;15.80;;;;;;;10.88;91.68;100918.91;5014891;28;20025;-69
2023/01/07 11:24:34;;;;;;;21.48;15.93;;;;;;;10.84;90.98;100896.81;5009923;28;20402;-70
2023/01/07 11:27:18;;;;;;;26.00;15.48;;;;;;;11.09;88.95;100911.81;5021351;28;20111;-70
2023/01/07 11:30:04;;;;;;;22.80;15.65;;;;;;;11.14;88.73;100912.31;5011123;28;20435;-70